createdAt,value
2022-07-26T00:02:00.709Z,6.25
2022-07-26T00:05:04.056Z,5.00
2022-07-26T00:08:12.051Z,8.23
2022-07-26T00:11:15.720Z,6.22
2022-07-26T00:14:18.173Z,5.15
2022-07-26T00:17:20.996Z,5.72
2022-07-26T00:20:23.612Z,5.30
2022-07-26T00:23:30.635Z,7.78
2022-07-26T00:26:33.927Z,5.20
2022-07-26T00:29:37.101Z,4.80
2022-07-26T00:32:39.659Z,5.85
2022-07-26T00:35:42.453Z,4.97
2022-07-26T00:38:45.045Z,7.93
2022-07-26T00:41:47.802Z,5.18
2022-07-26T00:44:50.518Z,4.68
2022-07-26T00:47:53.406Z,5.32
2022-07-26T00:50:55.972Z,5.82
2022-07-26T00:53:58.770Z,7.18
2022-07-26T00:57:01.374Z,5.85
2022-07-26T01:00:19.536Z,5.50
2022-07-26T01:03:21.955Z,7.03
2022-07-26T01:06:27.328Z,6.57
2022-07-26T01:09:30.310Z,5.78
2022-07-26T01:12:36.851Z,5.87
2022-07-26T01:15:39.480Z,5.32
2022-07-26T01:18:42.812Z,5.95
2022-07-26T01:21:45.916Z,7.30
2022-07-26T01:24:48.820Z,6.50
2022-07-26T01:27:51.345Z,4.93
2022-07-26T01:30:54.104Z,7.78
2022-07-26T01:33:56.635Z,8.68
2022-07-26T01:36:59.608Z,5.20
2022-07-26T01:40:03.194Z,6.60
2022-07-26T01:43:07.695Z,5.35
2022-07-26T01:46:10.514Z,5.35
2022-07-26T01:49:13.689Z,5.53
2022-07-26T01:52:16.196Z,7.35
2022-07-26T01:55:19.103Z,8.13
2022-07-26T01:58:21.834Z,8.45
2022-07-26T02:01:38.963Z,7.78
2022-07-26T02:05:01.513Z,8.10
2022-07-26T02:08:04.619Z,5.72
2022-07-26T02:11:07.330Z,6.00
2022-07-26T02:14:10.320Z,7.25
2022-07-26T02:17:13.629Z,5.45
2022-07-26T02:20:17.063Z,6.65
2022-07-26T02:23:20.200Z,5.85
2022-07-26T02:26:22.666Z,5.97
2022-07-26T02:29:26.597Z,9.55
2022-07-26T02:32:29.068Z,7.90
2022-07-26T02:35:32.080Z,6.45
2022-07-26T02:38:34.600Z,6.68
2022-07-26T02:41:37.387Z,8.02
2022-07-26T02:44:41.566Z,5.40
2022-07-26T02:47:52.031Z,6.15
2022-07-26T02:50:54.580Z,6.45
2022-07-26T02:53:57.357Z,6.70
2022-07-26T02:56:59.870Z,5.60
2022-07-26T03:00:03.136Z,5.18
2022-07-26T03:03:08.728Z,5.30
2022-07-26T03:06:11.791Z,5.20
2022-07-26T03:09:14.299Z,6.35
2022-07-26T03:12:17.197Z,5.95
2022-07-26T03:15:19.764Z,5.50
2022-07-26T03:18:22.472Z,6.47
2022-07-26T03:21:25.085Z,5.20
2022-07-26T03:24:27.928Z,7.37
2022-07-26T03:27:30.478Z,5.37
2022-07-26T03:30:33.449Z,5.80
2022-07-26T03:33:35.929Z,4.65
2022-07-26T03:36:38.694Z,5.35
2022-07-26T03:39:41.222Z,5.45
2022-07-26T03:42:45.272Z,7.25
2022-07-26T03:45:48.036Z,4.85
2022-07-26T03:48:51.264Z,5.40
2022-07-26T03:51:55.355Z,4.93
2022-07-26T03:54:58.168Z,8.35
2022-07-26T03:58:00.718Z,6.80
2022-07-26T04:01:03.693Z,5.78
2022-07-26T04:04:06.706Z,5.60
2022-07-26T04:07:11.626Z,5.97
2022-07-26T04:10:18.637Z,5.18
2022-07-26T04:13:21.191Z,5.35
2022-07-26T04:16:24.369Z,5.43
2022-07-26T04:19:27.010Z,6.87
2022-07-26T04:22:29.775Z,4.93
2022-07-26T04:25:40.813Z,7.25
2022-07-26T04:28:44.490Z,4.85
2022-07-26T04:31:47.000Z,7.12
2022-07-26T04:34:49.872Z,5.30
2022-07-26T04:37:52.321Z,8.15
2022-07-26T04:40:56.129Z,6.45
2022-07-26T04:43:58.660Z,5.03
2022-07-26T04:47:02.594Z,5.22
2022-07-26T04:50:05.770Z,7.95
2022-07-26T04:53:11.106Z,5.30
2022-07-26T04:56:13.684Z,6.00
2022-07-26T04:59:21.940Z,7.75
2022-07-26T05:05:30.595Z,5.95
2022-07-26T05:08:33.360Z,5.60
2022-07-26T05:11:36.413Z,5.65
2022-07-26T05:14:41.910Z,5.72
2022-07-26T05:17:45.034Z,11.18
2022-07-26T05:20:51.138Z,5.82
2022-07-26T05:23:55.342Z,5.50
2022-07-26T05:26:58.706Z,6.32
2022-07-26T05:30:01.906Z,5.57
2022-07-26T05:33:05.576Z,5.72
2022-07-26T05:36:08.610Z,5.70
2022-07-26T05:39:15.763Z,7.28
2022-07-26T05:42:19.082Z,7.60
2022-07-26T05:45:21.669Z,11.95
2022-07-26T05:48:24.778Z,8.05
2022-07-26T05:51:27.259Z,8.18
2022-07-26T05:54:30.785Z,9.63
2022-07-26T05:57:33.351Z,8.00
2022-07-26T06:00:36.252Z,4.68
2022-07-26T06:03:39.146Z,9.38
2022-07-26T06:06:41.671Z,7.47
2022-07-26T06:09:44.907Z,8.25
2022-07-26T06:12:47.409Z,6.75
2022-07-26T06:15:52.770Z,10.98
2022-07-26T06:18:55.264Z,11.25
2022-07-26T06:21:58.022Z,8.77
2022-07-26T06:25:03.022Z,11.02
2022-07-26T06:28:08.389Z,12.45
2022-07-26T06:31:10.949Z,7.97
2022-07-26T06:34:13.931Z,10.65
2022-07-26T06:37:16.424Z,15.60
2022-07-26T06:40:19.308Z,12.10
2022-07-26T06:43:21.902Z,8.52
2022-07-26T06:46:25.034Z,9.70
2022-07-26T06:49:27.572Z,10.45
2022-07-26T06:52:32.736Z,10.80
2022-07-26T06:55:35.430Z,8.82
2022-07-26T06:58:38.176Z,8.70
2022-07-26T07:01:59.709Z,8.95
2022-07-26T07:05:04.006Z,8.90
2022-07-26T07:08:07.414Z,7.50
2022-07-26T07:11:10.305Z,8.10
2022-07-26T07:14:13.197Z,8.45
2022-07-26T07:17:20.443Z,10.02
2022-07-26T07:20:23.210Z,8.43
2022-07-26T07:23:26.277Z,8.23
2022-07-26T07:26:28.882Z,6.82
2022-07-26T07:29:31.934Z,6.40
2022-07-26T07:32:34.520Z,12.80
2022-07-26T07:35:37.926Z,6.60
2022-07-26T07:38:42.832Z,8.88
2022-07-26T07:41:46.996Z,8.73
2022-07-26T07:44:50.183Z,6.53
2022-07-26T07:47:53.138Z,6.22
2022-07-26T07:50:55.948Z,7.05
2022-07-26T07:54:02.470Z,8.60
2022-07-26T07:57:07.816Z,7.10
2022-07-26T08:00:12.503Z,7.50
2022-07-26T08:03:19.630Z,7.68
2022-07-26T08:06:22.193Z,6.22
2022-07-26T08:09:25.608Z,8.32
2022-07-26T08:12:31.350Z,6.57
2022-07-26T08:15:34.231Z,8.50
2022-07-26T08:18:55.687Z,7.35
2022-07-26T08:22:00.343Z,8.40
2022-07-26T08:25:04.476Z,8.25
2022-07-26T08:28:15.489Z,5.75
2022-07-26T08:31:30.120Z,5.43
2022-07-26T08:34:37.003Z,8.07
2022-07-26T08:37:39.569Z,7.68
2022-07-26T08:40:42.607Z,7.03
2022-07-26T08:43:51.653Z,5.62
2022-07-26T08:46:55.383Z,8.05
2022-07-26T08:49:58.050Z,7.05
2022-07-26T08:53:04.214Z,10.50
2022-07-26T08:56:07.762Z,5.50
2022-07-26T08:59:20.800Z,5.43
2022-07-26T09:02:39.982Z,7.25
2022-07-26T09:05:42.756Z,7.70
2022-07-26T09:08:48.632Z,6.15
2022-07-26T09:11:51.797Z,5.45
2022-07-26T09:14:55.017Z,7.40
2022-07-26T09:17:58.565Z,6.35
2022-07-26T09:21:02.380Z,5.47
2022-07-26T09:24:05.772Z,7.30
2022-07-26T09:27:18.105Z,11.10
2022-07-26T09:30:21.065Z,6.95
2022-07-26T09:33:23.843Z,5.90
2022-07-26T09:36:29.510Z,7.53
2022-07-26T09:39:33.996Z,5.95
2022-07-26T09:42:37.412Z,9.18
2022-07-26T09:45:40.033Z,6.28
2022-07-26T09:49:09.310Z,10.15
2022-07-26T09:52:15.387Z,6.78
2022-07-26T09:55:18.287Z,6.37
2022-07-26T09:58:22.099Z,11.52
2022-07-26T10:01:25.067Z,8.82
2022-07-26T10:04:27.978Z,13.48
2022-07-26T10:07:30.696Z,6.70
2022-07-26T10:10:42.578Z,8.82
2022-07-26T10:13:45.098Z,10.40
2022-07-26T10:16:47.917Z,10.15
2022-07-26T10:19:53.301Z,9.07
2022-07-26T10:22:56.145Z,10.38
2022-07-26T10:26:00.270Z,9.63
2022-07-26T10:29:25.782Z,9.00
2022-07-26T10:32:31.466Z,11.73
2022-07-26T10:35:34.208Z,10.43
2022-07-26T10:38:37.884Z,9.93
2022-07-26T10:41:46.558Z,11.12
2022-07-26T10:44:49.957Z,8.88
2022-07-26T10:48:25.119Z,9.73
2022-07-26T10:51:31.713Z,9.27
2022-07-26T10:54:59.709Z,8.70
2022-07-26T10:58:02.232Z,8.82
2022-07-26T11:01:05.189Z,7.80
2022-07-26T11:04:19.008Z,9.10
2022-07-26T11:07:21.827Z,9.80
2022-07-26T11:10:37.047Z,9.32
2022-07-26T11:13:40.825Z,9.07
2022-07-26T11:16:50.428Z,9.35
2022-07-26T11:19:54.470Z,10.60
2022-07-26T11:22:57.139Z,10.57
2022-07-26T11:26:02.277Z,9.43
2022-07-26T11:29:06.455Z,10.77
2022-07-26T11:32:24.311Z,9.05
2022-07-26T11:35:30.131Z,10.60
2022-07-26T11:38:48.693Z,10.45
2022-07-26T11:41:56.891Z,9.10
2022-07-26T11:44:59.703Z,9.43
2022-07-26T11:48:04.286Z,11.02
2022-07-26T11:51:14.862Z,8.73
2022-07-26T11:54:17.592Z,10.02
2022-07-26T11:57:20.649Z,9.13
2022-07-26T12:00:24.220Z,10.77
2022-07-26T12:03:27.121Z,9.07
2022-07-26T12:06:38.311Z,8.93
2022-07-26T12:09:48.552Z,9.20
2022-07-26T12:13:07.036Z,9.95
2022-07-26T12:16:10.086Z,10.65
2022-07-26T12:19:18.449Z,10.07
2022-07-26T12:22:23.065Z,9.50
2022-07-26T12:25:27.907Z,9.55
2022-07-26T12:28:40.562Z,10.05
2022-07-26T12:31:43.161Z,9.10
2022-07-26T12:35:01.466Z,8.77
2022-07-26T12:38:04.217Z,7.95
2022-07-26T12:41:07.165Z,8.50
2022-07-26T12:44:12.998Z,9.02
2022-07-26T12:47:16.283Z,7.78
2022-07-26T12:50:21.366Z,7.97
2022-07-26T12:53:24.335Z,7.80
2022-07-26T12:56:26.997Z,7.82
2022-07-26T12:59:29.783Z,7.32
2022-07-26T13:02:32.639Z,8.05
2022-07-26T13:05:35.665Z,11.20
2022-07-26T13:08:38.403Z,9.00
2022-07-26T13:11:41.443Z,8.95
2022-07-26T13:14:44.083Z,8.70
2022-07-26T13:17:46.852Z,8.82
2022-07-26T13:20:49.428Z,9.50
2022-07-26T13:23:52.261Z,8.43
2022-07-26T13:26:56.438Z,8.77
2022-07-26T13:30:03.792Z,8.13
2022-07-26T13:33:06.849Z,8.25
2022-07-26T13:36:09.801Z,9.20
2022-07-26T13:39:12.528Z,10.00
2022-07-26T13:42:17.082Z,8.52
2022-07-26T13:45:19.643Z,9.52
2022-07-26T13:48:22.591Z,9.98
2022-07-26T13:51:46.616Z,8.90
2022-07-26T13:54:50.500Z,8.50
2022-07-26T13:57:57.191Z,8.10
2022-07-26T14:04:06.649Z,10.02
2022-07-26T14:07:09.304Z,9.32
2022-07-26T14:10:12.188Z,9.35
2022-07-26T14:13:14.800Z,10.82
2022-07-26T14:16:17.652Z,10.02
2022-07-26T14:19:20.237Z,10.18
2022-07-26T14:22:23.032Z,10.40
2022-07-26T14:25:27.380Z,11.12
2022-07-26T14:28:30.164Z,9.80
2022-07-26T14:31:32.884Z,10.85
2022-07-26T14:34:35.702Z,10.73
2022-07-26T14:37:44.360Z,10.73
2022-07-26T14:40:48.256Z,10.55
2022-07-26T14:43:55.818Z,11.30
2022-07-26T14:46:58.829Z,10.63
2022-07-26T14:50:06.131Z,10.93
2022-07-26T14:53:12.121Z,10.38
2022-07-26T14:56:14.614Z,12.37
2022-07-26T14:59:17.849Z,10.90
2022-07-26T15:02:20.573Z,10.80
2022-07-26T15:05:26.957Z,10.70
2022-07-26T15:08:29.762Z,11.40
2022-07-26T15:11:32.626Z,10.52
2022-07-26T15:14:36.098Z,10.85
2022-07-26T15:17:39.162Z,10.57
2022-07-26T15:20:42.088Z,12.20
2022-07-26T15:23:44.879Z,11.57
2022-07-26T15:26:47.431Z,11.12
2022-07-26T15:29:50.923Z,11.45
2022-07-26T15:32:55.377Z,11.55
2022-07-26T15:35:59.548Z,11.48
2022-07-26T15:39:16.014Z,10.30
2022-07-26T15:42:19.516Z,12.13
2022-07-26T15:45:25.660Z,10.95
2022-07-26T15:48:28.594Z,10.93
2022-07-26T15:51:31.113Z,10.40
2022-07-26T15:54:34.404Z,10.02
2022-07-26T15:57:37.361Z,11.02
2022-07-26T16:00:40.218Z,10.80
2022-07-26T16:03:43.181Z,10.95
2022-07-26T16:06:45.784Z,11.30
2022-07-26T16:09:48.596Z,11.10
2022-07-26T16:12:51.137Z,11.00
2022-07-26T16:15:53.994Z,11.25
2022-07-26T16:18:56.679Z,11.57
2022-07-26T16:21:59.442Z,11.70
2022-07-26T16:25:01.977Z,12.07
2022-07-26T16:28:05.085Z,12.10
2022-07-26T16:31:10.607Z,12.15
2022-07-26T16:34:14.860Z,13.15
2022-07-26T16:37:17.440Z,13.62
2022-07-26T16:40:20.493Z,14.93
2022-07-26T16:43:23.068Z,14.80
2022-07-26T16:46:26.038Z,15.18
2022-07-26T16:49:28.746Z,15.98
2022-07-26T16:52:31.688Z,15.85
2022-07-26T16:55:34.230Z,15.15
2022-07-26T16:58:37.122Z,16.55
2022-07-26T17:01:39.671Z,14.00
2022-07-26T17:04:42.525Z,13.40
2022-07-26T17:07:44.998Z,14.15
2022-07-26T17:10:47.883Z,14.05
2022-07-26T17:13:50.448Z,14.07
2022-07-26T17:16:53.486Z,14.85
2022-07-26T17:19:56.339Z,15.05
2022-07-26T17:22:59.124Z,14.35
2022-07-26T17:26:02.182Z,15.45
2022-07-26T17:29:06.260Z,15.20
2022-07-26T17:32:09.783Z,15.73
2022-07-26T17:35:12.571Z,16.20
2022-07-26T17:38:15.219Z,15.48
2022-07-26T17:41:19.374Z,15.57
2022-07-26T17:44:22.819Z,15.75
2022-07-26T17:47:29.520Z,15.23
2022-07-26T17:50:37.700Z,15.33
2022-07-26T17:53:42.864Z,15.00
2022-07-26T17:56:45.466Z,14.73
2022-07-26T17:59:48.329Z,16.10
2022-07-26T18:02:51.009Z,16.60
2022-07-26T18:05:56.772Z,15.88
2022-07-26T18:08:59.471Z,15.20
2022-07-26T18:12:02.311Z,16.52
2022-07-26T18:15:07.085Z,15.50
2022-07-26T18:18:10.096Z,15.63
2022-07-26T18:21:12.714Z,16.90
2022-07-26T18:24:17.367Z,17.92
2022-07-26T18:27:20.428Z,17.20
2022-07-26T18:30:24.912Z,17.62
2022-07-26T18:33:27.605Z,17.05
2022-07-26T18:36:34.976Z,17.97
2022-07-26T18:39:37.618Z,17.55
2022-07-26T18:42:40.952Z,17.50
2022-07-26T18:45:43.593Z,17.92
2022-07-26T18:48:46.578Z,18.45
2022-07-26T18:51:49.402Z,19.33
2022-07-26T18:54:53.308Z,18.60
2022-07-26T18:57:56.004Z,19.65
2022-07-26T19:00:58.802Z,19.90
2022-07-26T19:04:06.252Z,19.40
2022-07-26T19:07:09.889Z,20.95
2022-07-26T19:10:13.209Z,19.58
2022-07-26T19:13:16.058Z,21.23
2022-07-26T19:16:19.170Z,20.50
2022-07-26T19:19:22.735Z,22.10
2022-07-26T19:22:25.889Z,20.95
2022-07-26T19:25:28.720Z,21.25
2022-07-26T19:28:31.437Z,21.23
2022-07-26T19:31:34.465Z,21.45
2022-07-26T19:34:39.371Z,21.35
2022-07-26T19:37:45.121Z,21.10
2022-07-26T19:40:47.788Z,21.37
2022-07-26T19:43:50.635Z,21.62
2022-07-26T19:46:57.554Z,21.92
2022-07-26T19:50:01.713Z,21.15
2022-07-26T19:53:04.428Z,20.40
2022-07-26T19:56:07.939Z,20.73
2022-07-26T19:59:10.908Z,19.65
2022-07-26T20:02:14.275Z,20.05
2022-07-26T20:05:18.476Z,19.80
2022-07-26T20:08:21.385Z,20.05
2022-07-26T20:11:25.093Z,19.60
2022-07-26T20:14:27.581Z,19.45
2022-07-26T20:17:35.389Z,19.45
2022-07-26T20:20:38.204Z,20.30
2022-07-26T20:23:41.013Z,18.33
2022-07-26T20:26:43.524Z,18.15
2022-07-26T20:29:46.554Z,18.40
2022-07-26T20:32:49.164Z,18.62
2022-07-26T20:35:55.143Z,16.30
2022-07-26T20:38:58.071Z,16.08
2022-07-26T20:42:01.809Z,15.05
2022-07-26T20:45:05.156Z,15.73
2022-07-26T20:48:14.242Z,15.63
2022-07-26T20:51:17.058Z,15.23
2022-07-26T20:54:20.118Z,14.95
2022-07-26T20:57:23.608Z,15.15
2022-07-26T21:00:27.277Z,13.93
2022-07-26T21:03:29.814Z,14.35
2022-07-26T21:06:33.557Z,14.45
2022-07-26T21:09:36.388Z,13.93
2022-07-26T21:12:39.302Z,13.38
2022-07-26T21:15:42.446Z,13.77
2022-07-26T21:18:45.750Z,13.77
2022-07-26T21:21:57.011Z,13.50
2022-07-26T21:25:00.134Z,12.02
2022-07-26T21:28:02.833Z,14.13
2022-07-26T21:31:05.639Z,13.05
2022-07-26T21:34:08.452Z,12.48
2022-07-26T21:37:12.308Z,12.55
2022-07-26T21:40:14.808Z,12.40
2022-07-26T21:43:17.613Z,11.27
2022-07-26T21:46:20.152Z,11.68
2022-07-26T21:49:23.137Z,11.90
2022-07-26T21:52:25.704Z,10.88
2022-07-26T21:55:28.731Z,10.75
2022-07-26T21:58:36.106Z,10.73
2022-07-26T22:04:44.532Z,10.18
2022-07-26T22:07:47.076Z,9.95
2022-07-26T22:10:49.970Z,8.90
2022-07-26T22:13:52.533Z,8.20
2022-07-26T22:16:55.313Z,7.43
2022-07-26T22:19:57.964Z,7.10
2022-07-26T22:23:02.935Z,7.25
2022-07-26T22:26:05.854Z,6.60
2022-07-26T22:29:09.486Z,6.40
2022-07-26T22:32:12.211Z,6.68
2022-07-26T22:35:15.123Z,6.00
2022-07-26T22:38:17.709Z,6.10
2022-07-26T22:41:20.482Z,5.78
2022-07-26T22:44:23.074Z,6.18
2022-07-26T22:47:25.901Z,6.37
2022-07-26T22:50:28.918Z,6.37
2022-07-26T22:53:31.660Z,6.18
2022-07-26T22:56:34.194Z,6.43
2022-07-26T22:59:37.178Z,5.80
2022-07-26T23:02:39.712Z,6.25
2022-07-26T23:05:46.119Z,6.85
2022-07-26T23:08:50.117Z,5.95
2022-07-26T23:11:52.912Z,8.05
2022-07-26T23:14:55.559Z,6.25
2022-07-26T23:17:58.444Z,6.87
2022-07-26T23:21:01.014Z,5.95
2022-07-26T23:24:03.946Z,6.65
2022-07-26T23:27:06.538Z,6.50
2022-07-26T23:30:09.660Z,8.25
2022-07-26T23:33:12.153Z,6.68
2022-07-26T23:36:15.072Z,6.32
2022-07-26T23:39:17.730Z,6.05
2022-07-26T23:42:20.519Z,5.60
2022-07-26T23:45:23.403Z,5.60
2022-07-26T23:48:26.405Z,6.25
2022-07-26T23:51:28.987Z,5.45
2022-07-26T23:54:31.838Z,5.97
2022-07-26T23:57:34.441Z,7.55
